Time;durP1;ratioP1;P1;durP2;ratioP2;P2;SDS_P1;SDS_P2;PMS_P1;PMS_P2;Temp;Humidity;BMP_temperature;BMP_pressure;BME280_temperature;BME280_humidity;BME280_pressure;Samples;Min_cycle;Max_cycle;Signal;HPM_P1;HPM_P2
2022/01/01 00:01:34;;;;;;;58.60;52.73;;;9.90;90.70;;;;;;5032575;28;20956;-73
2022/01/01 00:04:01;;;;;;;52.27;47.37;;;9.90;91.90;;;;;;5032667;28;20852;-73
2022/01/01 00:06:28;;;;;;;52.03;47.20;;;9.90;90.90;;;;;;5032487;28;20490;-73
2022/01/01 00:08:56;;;;;;;50.30;45.50;;;9.90;90.70;;;;;;5032512;28;20514;-73
2022/01/01 00:11:23;;;;;;;51.73;47.10;;;9.90;90.10;;;;;;5032423;28;20462;-73
2022/01/01 00:13:50;;;;;;;57.40;51.97;;;9.80;90.10;;;;;;5032593;28;20460;-73
2022/01/01 00:16:17;;;;;;;55.33;50.23;;;9.80;91.80;;;;;;5032444;28;20552;-73
2022/01/01 00:18:43;;;;;;;53.80;48.60;;;9.80;91.80;;;;;;5032494;28;20560;-73
2022/01/01 00:21:10;;;;;;;56.03;50.77;;;9.80;92.70;;;;;;5033618;28;20491;-73
2022/01/01 00:23:39;;;;;;;53.50;48.50;;;9.80;92.10;;;;;;5036552;28;20459;-73
2022/01/01 00:26:07;;;;;;;50.87;46.37;;;9.80;91.40;;;;;;5036548;28;21067;-73
2022/01/01 00:28:34;;;;;;;55.70;50.57;;;9.80;90.70;;;;;;5036282;28;20495;-73
2022/01/01 00:31:01;;;;;;;52.20;47.40;;;9.90;91.30;;;;;;5036477;28;20474;-73
2022/01/01 00:33:29;;;;;;;51.60;46.70;;;10.00;90.40;;;;;;5036451;28;20461;-73
2022/01/01 00:35:56;;;;;;;53.40;48.47;;;10.00;89.50;;;;;;5036339;28;20894;-73
2022/01/01 00:38:23;;;;;;;53.00;47.90;;;10.00;89.30;;;;;;5036091;28;20883;-73
2022/01/01 00:41:04;;;;;;;51.90;47.10;;;9.90;89.20;;;;;;5036102;28;20451;-73
2022/01/01 00:43:35;;;;;;;52.90;47.73;;;10.00;89.00;;;;;;5036193;28;20947;-73
2022/01/01 00:46:11;;;;;;;52.53;47.57;;;9.90;88.40;;;;;;5036195;28;20558;-73
2022/01/01 00:48:38;;;;;;;49.60;44.90;;;9.70;88.80;;;;;;5035887;28;20459;-73
2022/01/01 00:51:05;;;;;;;48.73;43.10;;;9.40;90.30;;;;;;5036151;28;20474;-73
2022/01/01 00:53:41;;;;;;;44.97;40.87;;;9.30;91.40;;;;;;5035923;28;20544;-73
2022/01/01 00:56:08;;;;;;;34.10;31.13;;;9.50;91.10;;;;;;5036059;28;21067;-73
2022/01/01 00:58:38;;;;;;;38.30;34.77;;;9.70;90.80;;;;;;5035700;28;20451;-73
2022/01/01 01:01:06;;;;;;;46.57;42.33;;;9.90;90.00;;;;;;5036184;28;20820;-73
2022/01/01 01:03:34;;;;;;;48.47;43.93;;;10.10;90.00;;;;;;5035947;28;20466;-73
2022/01/01 01:06:01;;;;;;;44.60;40.70;;;10.20;89.40;;;;;;5035832;28;20479;-73
2022/01/01 01:08:30;;;;;;;45.87;41.53;;;10.20;89.10;;;;;;5035842;28;20463;-73
2022/01/01 01:10:57;;;;;;;45.90;41.70;;;10.30;88.50;;;;;;5035929;28;20544;-73
2022/01/01 01:13:27;;;;;;;46.10;42.00;;;10.20;88.50;;;;;;5035675;28;20538;-73
2022/01/01 01:15:55;;;;;;;47.93;43.50;;;10.20;88.80;;;;;;5035623;28;20501;-73
2022/01/01 01:18:22;;;;;;;51.13;46.33;;;10.20;88.70;;;;;;5035524;28;20521;-73
2022/01/01 01:20:49;;;;;;;52.90;48.10;;;10.30;88.20;;;;;;5035431;28;20484;-73
2022/01/01 01:23:16;;;;;;;52.50;47.47;;;10.20;88.00;;;;;;5035504;28;20483;-73
2022/01/01 01:25:43;;;;;;;50.63;46.20;;;10.10;88.40;;;;;;5035481;28;20992;-73
2022/01/01 01:28:13;;;;;;;45.73;41.53;;;10.20;88.70;;;;;;5035400;28;20457;-73
2022/01/01 01:30:41;;;;;;;45.83;41.73;;;10.20;88.20;;;;;;5035062;28;20514;-73
2022/01/01 01:33:10;;;;;;;43.80;39.90;;;10.10;88.40;;;;;;5034003;28;20879;-73
2022/01/01 01:35:37;;;;;;;43.03;39.23;;;10.10;88.90;;;;;;5035251;28;20540;-73
2022/01/01 01:38:05;;;;;;;43.97;40.07;;;10.10;88.70;;;;;;5035248;28;20456;-73
2022/01/01 01:40:32;;;;;;;43.73;39.73;;;10.10;88.70;;;;;;5034870;28;20486;-73
2022/01/01 01:42:59;;;;;;;43.10;39.23;;;10.10;89.00;;;;;;5034881;28;20456;-73
2022/01/01 01:45:28;;;;;;;44.10;40.07;;;10.00;89.30;;;;;;5035034;28;20484;-73
2022/01/01 01:47:55;;;;;;;43.53;39.43;;;10.10;89.10;;;;;;5034987;28;20456;-73
2022/01/01 01:50:24;;;;;;;43.40;39.50;;;10.10;89.00;;;;;;5034563;28;20484;-73
2022/01/01 01:52:54;;;;;;;41.30;37.60;;;10.10;89.50;;;;;;5034957;28;20456;-73
2022/01/01 01:55:21;;;;;;;41.30;37.33;;;10.10;90.10;;;;;;5035093;28;20814;-73
2022/01/01 01:57:50;;;;;;;44.97;41.00;;;10.10;90.20;;;;;;5034848;28;20547;-73
2022/01/01 02:00:43;;;;;;;42.87;38.67;;;10.20;89.40;;;;;;5034600;28;20468;-73
2022/01/01 02:03:10;;;;;;;40.70;37.20;;;10.20;89.30;;;;;;5034802;28;20452;-73
2022/01/01 02:05:39;;;;;;;38.70;35.37;;;10.20;90.50;;;;;;5034575;28;20925;-73
2022/01/01 02:08:07;;;;;;;37.23;34.23;;;10.20;90.10;;;;;;5034652;28;20837;-73
2022/01/01 02:10:35;;;;;;;37.10;33.97;;;10.20;90.60;;;;;;5034314;28;21049;-73
2022/01/01 02:13:10;;;;;;;35.63;32.50;;;10.30;89.50;;;;;;5034596;28;20448;-73
2022/01/01 02:15:45;;;;;;;36.40;32.80;;;10.20;89.30;;;;;;5034443;28;20452;-73
2022/01/01 02:18:12;;;;;;;36.37;33.00;;;10.10;89.30;;;;;;5034269;28;20467;-73
2022/01/01 02:20:41;;;;;;;38.03;34.60;;;10.10;89.40;;;;;;5034256;28;20498;-73
2022/01/01 02:23:11;;;;;;;35.93;33.03;;;10.20;89.00;;;;;;5034389;28;20539;-73
2022/01/01 02:25:38;;;;;;;36.03;33.13;;;10.20;88.80;;;;;;5034292;28;20483;-73
2022/01/01 02:28:05;;;;;;;34.90;32.00;;;10.20;88.90;;;;;;5034287;28;20933;-73
2022/01/01 02:30:32;;;;;;;34.13;31.17;;;10.20;88.50;;;;;;5034047;28;20471;-73
2022/01/01 02:32:59;;;;;;;34.23;31.37;;;10.20;88.80;;;;;;5034249;28;20535;-73
2022/01/01 02:35:26;;;;;;;33.53;30.53;;;10.20;88.70;;;;;;5034048;28;20526;-73
2022/01/01 02:37:54;;;;;;;34.37;31.27;;;10.10;89.60;;;;;;5034158;28;20550;-73
2022/01/01 02:40:22;;;;;;;35.13;32.17;;;10.00;91.60;;;;;;5033692;28;20472;-73
2022/01/01 02:42:50;;;;;;;34.20;31.30;;;10.00;90.80;;;;;;5034087;28;20459;-73
2022/01/01 02:45:17;;;;;;;33.50;30.50;;;9.90;90.50;;;;;;5033346;28;20456;-73
2022/01/01 02:47:45;;;;;;;34.60;31.10;;;9.90;90.30;;;;;;5042184;22;20483;-73
2022/01/01 02:50:12;;;;;;;33.17;30.30;;;9.90;90.20;;;;;;5033368;28;20468;-73
2022/01/01 02:52:39;;;;;;;32.83;30.13;;;9.90;90.30;;;;;;5033866;28;21007;-73
2022/01/01 02:55:09;;;;;;;32.40;29.70;;;10.00;90.10;;;;;;5033926;28;20448;-73
2022/01/01 02:57:36;;;;;;;34.67;31.37;;;9.90;90.90;;;;;;5033738;28;20484;-73
2022/01/01 03:00:04;;;;;;;32.87;30.27;;;9.90;90.80;;;;;;5033454;28;20467;-73
2022/01/01 03:02:31;;;;;;;33.07;30.17;;;10.00;90.60;;;;;;5033683;28;20491;-73
2022/01/01 03:04:58;;;;;;;32.70;29.57;;;10.00;90.50;;;;;;5033642;28;20452;-73
2022/01/01 03:07:25;;;;;;;34.63;31.50;;;10.00;90.10;;;;;;5033530;28;20481;-73
2022/01/01 03:09:52;;;;;;;33.60;30.90;;;10.00;90.00;;;;;;5033207;28;20558;-73
2022/01/01 03:12:20;;;;;;;33.03;30.23;;;10.00;90.00;;;;;;5033559;28;20495;-73
2022/01/01 03:14:47;;;;;;;32.67;29.90;;;10.00;90.20;;;;;;5033452;28;20547;-73
2022/01/01 03:17:14;;;;;;;32.53;30.03;;;9.90;90.50;;;;;;5033343;28;20452;-73
2022/01/01 03:19:41;;;;;;;31.87;29.30;;;10.00;90.20;;;;;;5033114;28;20499;-73
2022/01/01 03:22:08;;;;;;;33.20;30.17;;;9.90;90.30;;;;;;5033270;28;20971;-73
2022/01/01 03:24:35;;;;;;;32.57;30.07;;;9.90;90.60;;;;;;5033232;28;20462;-73
2022/01/01 03:27:02;;;;;;;31.23;28.57;;;10.00;91.30;;;;;;5033194;28;20479;-73
2022/01/01 03:29:32;;;;;;;30.80;28.13;;;10.00;92.30;;;;;;5032868;28;20554;-73
2022/01/01 03:31:59;;;;;;;33.13;30.43;;;10.00;91.40;;;;;;5033244;28;20483;-73
2022/01/01 03:34:27;;;;;;;31.37;28.87;;;10.10;90.80;;;;;;5033147;28;20447;-73
2022/01/01 03:36:54;;;;;;;30.03;27.53;;;10.20;90.50;;;;;;5033030;28;20470;-73
2022/01/01 03:39:22;;;;;;;30.63;28.23;;;10.20;90.30;;;;;;5032845;28;20550;-73
2022/01/01 03:41:49;;;;;;;31.00;28.40;;;10.20;90.20;;;;;;5032880;28;20452;-73
2022/01/01 03:44:16;;;;;;;30.93;28.27;;;10.30;89.90;;;;;;5032631;28;20464;-73
2022/01/01 03:46:44;;;;;;;31.20;28.90;;;10.30;89.50;;;;;;5032924;28;20567;-73
2022/01/01 03:49:11;;;;;;;28.83;26.37;;;10.30;89.40;;;;;;5032365;28;20490;-73
2022/01/01 03:51:38;;;;;;;31.07;28.73;;;10.20;89.70;;;;;;5032961;28;20456;-73
2022/01/01 03:54:05;;;;;;;32.07;29.40;;;10.20;89.80;;;;;;5032853;28;20448;-73
2022/01/01 03:56:32;;;;;;;29.80;27.40;;;10.30;90.10;;;;;;5031864;28;20967;-73
2022/01/01 03:58:59;;;;;;;28.13;26.00;;;10.30;93.00;;;;;;5032711;28;20999;-73
2022/01/01 04:01:26;;;;;;;28.40;26.40;;;10.30;91.50;;;;;;5032654;28;20534;-73
2022/01/01 04:03:54;;;;;;;29.60;27.10;;;10.40;91.10;;;;;;5032658;28;20458;-73
2022/01/01 04:06:21;;;;;;;27.77;25.47;;;10.40;90.50;;;;;;5032595;28;20481;-73
2022/01/01 04:08:48;;;;;;;27.07;25.03;;;10.50;90.30;;;;;;5032448;28;20482;-73
2022/01/01 04:11:15;;;;;;;28.83;26.67;;;10.50;90.00;;;;;;5032528;28;20452;-73
2022/01/01 04:13:42;;;;;;;28.10;25.80;;;10.50;89.90;;;;;;5032698;28;20864;-73
2022/01/01 04:16:10;;;;;;;26.90;25.00;;;10.50;89.80;;;;;;5032502;28;20458;-73
2022/01/01 04:18:40;;;;;;;29.73;27.37;;;10.60;89.50;;;;;;5032561;28;20448;-73
2022/01/01 04:21:09;;;;;;;28.33;26.10;;;10.60;89.20;;;;;;5032351;28;20456;-73
2022/01/01 04:23:36;;;;;;;27.57;25.47;;;10.60;89.10;;;;;;5032461;28;20447;-73
2022/01/01 04:26:05;;;;;;;29.13;26.73;;;10.60;89.30;;;;;;5032436;28;20480;-73
2022/01/01 04:28:32;;;;;;;27.77;25.83;;;10.70;89.40;;;;;;5032387;28;20903;-73
2022/01/01 04:30:59;;;;;;;30.03;27.67;;;10.60;89.20;;;;;;5032387;28;20448;-73
2022/01/01 04:33:28;;;;;;;29.10;26.80;;;10.60;89.30;;;;;;5032763;28;20548;-73
2022/01/01 04:35:55;;;;;;;27.33;25.07;;;10.60;89.20;;;;;;5032329;28;20835;-73
2022/01/01 04:38:35;;;;;;;28.23;26.00;;;10.70;88.80;;;;;;5032154;28;20547;-73
2022/01/01 04:41:03;;;;;;;26.40;24.50;;;10.60;88.90;;;;;;5032412;28;20487;-73
2022/01/01 04:43:30;;;;;;;26.83;24.93;;;10.60;89.10;;;;;;5032212;28;20502;-73
2022/01/01 04:45:57;;;;;;;28.57;26.47;;;10.60;89.60;;;;;;5032331;28;20543;-73
2022/01/01 04:48:24;;;;;;;26.60;24.70;;;10.60;89.60;;;;;;5031713;28;20466;-73
2022/01/01 04:50:51;;;;;;;26.33;24.43;;;10.50;89.40;;;;;;5032169;28;20456;-73
2022/01/01 04:53:19;;;;;;;27.23;24.80;;;10.50;89.30;;;;;;5032284;28;20466;-73
2022/01/01 04:55:47;;;;;;;26.33;24.40;;;10.50;89.20;;;;;;5032313;28;20546;-73
2022/01/01 04:58:15;;;;;;;25.63;23.83;;;10.50;89.30;;;;;;5032116;28;20455;-73
2022/01/01 05:00:42;;;;;;;25.57;23.53;;;10.40;90.80;;;;;;5032068;28;20507;-73
2022/01/01 05:03:09;;;;;;;22.77;21.17;;;10.40;90.00;;;;;;5032221;28;20455;-73
2022/01/01 05:05:36;;;;;;;25.57;23.77;;;10.30;89.60;;;;;;5032056;28;20539;-73
2022/01/01 05:08:03;;;;;;;23.50;22.10;;;10.30;89.40;;;;;;5034506;28;20478;-73
2022/01/01 05:10:30;;;;;;;23.73;22.20;;;10.20;89.50;;;;;;5035545;28;20558;-73
2022/01/01 05:12:58;;;;;;;23.80;22.10;;;10.20;89.60;;;;;;5035942;28;20545;-73
2022/01/01 05:15:25;;;;;;;23.13;21.53;;;10.20;89.40;;;;;;5035723;28;20502;-73
2022/01/01 05:17:52;;;;;;;24.37;22.77;;;10.20;89.40;;;;;;5035497;28;20462;-73
2022/01/01 05:20:19;;;;;;;23.07;21.40;;;10.20;89.20;;;;;;5035341;28;20536;-73
2022/01/01 05:22:45;;;;;;;23.73;22.33;;;10.10;89.10;;;;;;5035700;28;20802;-73
2022/01/01 05:25:12;;;;;;;23.87;22.37;;;10.10;89.10;;;;;;5035512;28;20949;-73
2022/01/01 05:27:40;;;;;;;22.57;21.00;;;10.00;89.30;;;;;;5035619;28;20480;-73
2022/01/01 05:30:10;;;;;;;22.10;20.67;;;9.90;89.80;;;;;;5035111;28;20472;-73
2022/01/01 05:32:37;;;;;;;23.33;21.53;;;9.80;90.10;;;;;;5035480;28;20992;-73
2022/01/01 05:35:05;;;;;;;24.13;22.43;;;9.70;90.00;;;;;;5035360;28;20540;-73
2022/01/01 05:37:32;;;;;;;23.53;21.93;;;9.60;90.20;;;;;;5035228;28;20941;-73
2022/01/01 05:39:59;;;;;;;22.90;21.37;;;9.60;90.10;;;;;;5034958;28;20829;-73
2022/01/01 05:42:26;;;;;;;23.60;22.00;;;9.70;89.80;;;;;;5035322;28;20458;-73
2022/01/01 05:44:53;;;;;;;22.33;20.50;;;9.50;90.10;;;;;;5034830;28;20474;-73
2022/01/01 05:47:21;;;;;;;23.40;21.57;;;9.50;90.10;;;;;;5035095;28;20567;-73
2022/01/01 05:49:48;;;;;;;21.90;20.50;;;9.50;89.60;;;;;;5034822;28;20502;-73
2022/01/01 05:52:15;;;;;;;23.00;21.50;;;9.40;89.60;;;;;;5035086;28;20459;-73
2022/01/01 05:54:42;;;;;;;23.23;21.63;;;9.40;89.00;;;;;;5035012;28;20460;-73
2022/01/01 05:57:09;;;;;;;22.90;21.40;;;9.40;89.20;;;;;;5034993;28;20452;-73
2022/01/01 05:59:40;;;;;;;22.40;20.90;;;9.30;89.50;;;;;;5034680;28;20575;-73
2022/01/01 06:02:07;;;;;;;23.13;21.53;;;9.40;89.60;;;;;;5035142;28;20475;-73
2022/01/01 06:04:35;;;;;;;22.10;20.70;;;9.40;89.40;;;;;;5035033;28;20452;-73
2022/01/01 06:07:02;;;;;;;23.43;21.83;;;9.40;89.00;;;;;;5034744;28;20909;-73
2022/01/01 06:09:29;;;;;;;22.70;21.40;;;9.40;88.80;;;;;;5034368;28;20482;-73
2022/01/01 06:11:56;;;;;;;23.10;21.60;;;9.50;88.60;;;;;;5034609;28;20937;-73
2022/01/01 06:14:23;;;;;;;23.50;21.97;;;9.60;88.10;;;;;;5034754;28;20454;-73
2022/01/01 06:16:50;;;;;;;22.50;21.10;;;9.60;87.60;;;;;;5034524;28;20889;-73
2022/01/01 06:19:17;;;;;;;22.53;20.93;;;9.70;87.50;;;;;;5033468;28;20994;-73
2022/01/01 06:21:45;;;;;;;22.10;20.80;;;9.80;87.10;;;;;;5034638;28;20631;-73
2022/01/01 06:24:12;;;;;;;24.03;22.43;;;9.80;86.70;;;;;;5034357;28;20463;-73
2022/01/01 06:26:39;;;;;;;21.57;20.30;;;9.80;86.20;;;;;;5034400;28;20451;-73
2022/01/01 06:29:06;;;;;;;22.90;21.50;;;9.90;86.30;;;;;;5034202;28;20898;-73
2022/01/01 06:31:32;;;;;;;22.53;21.13;;;9.90;86.10;;;;;;5034289;28;20535;-73
2022/01/01 06:33:59;;;;;;;22.33;20.93;;;9.90;85.90;;;;;;5034411;28;20451;-73
2022/01/01 06:36:26;;;;;;;22.00;20.70;;;10.00;85.60;;;;;;5034335;28;20455;-73
2022/01/01 06:38:55;;;;;;;23.60;21.87;;;10.00;85.30;;;;;;5033976;28;20476;-73
2022/01/01 06:41:24;;;;;;;22.33;20.93;;;10.10;85.30;;;;;;5034063;28;20463;-73
2022/01/01 06:43:51;;;;;;;21.90;20.60;;;10.00;85.40;;;;;;5034073;28;20483;-73
2022/01/01 06:46:18;;;;;;;24.40;23.00;;;10.00;86.10;;;;;;5034266;28;20802;-73
2022/01/01 06:48:45;;;;;;;22.30;20.70;;;10.10;85.40;;;;;;5033737;28;20567;-73
2022/01/01 06:51:12;;;;;;;22.80;21.40;;;10.10;85.20;;;;;;5033612;28;20455;-73
2022/01/01 06:53:39;;;;;;;22.33;20.73;;;10.10;85.10;;;;;;5033889;28;20539;-73
2022/01/01 06:56:07;;;;;;;22.63;21.10;;;10.10;85.10;;;;;;5033981;28;20462;-73
2022/01/01 06:58:35;;;;;;;21.60;20.30;;;10.20;85.10;;;;;;5033683;28;20511;-73
2022/01/01 07:01:02;;;;;;;22.53;20.80;;;10.20;85.10;;;;;;5033711;28;20539;-73
2022/01/01 07:03:29;;;;;;;24.10;22.50;;;10.20;84.90;;;;;;5033741;28;20547;-73
2022/01/01 07:05:56;;;;;;;22.73;21.20;;;10.20;84.90;;;;;;5033537;28;20460;-73
2022/01/01 07:08:23;;;;;;;22.73;21.30;;;10.30;84.60;;;;;;5033457;28;21071;-73
2022/01/01 07:10:49;;;;;;;22.87;21.40;;;10.30;84.50;;;;;;5033553;28;20542;-73
2022/01/01 07:13:18;;;;;;;22.77;21.30;;;10.30;84.50;;;;;;5033480;28;20452;-73
2022/01/01 07:15:45;;;;;;;25.43;23.93;;;10.30;84.60;;;;;;5033660;28;20460;-73
2022/01/01 07:18:12;;;;;;;23.17;21.87;;;10.30;84.60;;;;;;5033304;28;20452;-73
2022/01/01 07:20:39;;;;;;;23.80;22.30;;;10.30;84.30;;;;;;5033152;28;20836;-73
2022/01/01 07:23:05;;;;;;;24.03;22.57;;;10.30;84.50;;;;;;5033539;28;20456;-73
2022/01/01 07:25:33;;;;;;;25.00;23.50;;;10.30;84.50;;;;;;5033168;28;20538;-73
2022/01/01 07:27:59;;;;;;;23.77;22.10;;;10.30;85.50;;;;;;5033222;28;20564;-73
2022/01/01 07:30:28;;;;;;;22.63;21.33;;;10.30;85.60;;;;;;5032941;28;20550;-73
2022/01/01 07:32:55;;;;;;;24.23;22.67;;;10.20;85.50;;;;;;5033339;28;20530;-73
2022/01/01 07:35:22;;;;;;;22.70;21.40;;;10.30;85.30;;;;;;5033097;28;20451;-73
2022/01/01 07:37:52;;;;;;;22.83;21.40;;;10.30;84.50;;;;;;5033200;28;20539;-73
2022/01/01 07:40:20;;;;;;;23.10;21.70;;;10.30;84.70;;;;;;5032809;28;20550;-73
2022/01/01 07:42:48;;;;;;;23.50;22.03;;;10.30;84.60;;;;;;5033087;28;20538;-73
2022/01/01 07:45:15;;;;;;;23.37;22.00;;;10.40;85.10;;;;;;5032804;28;20916;-73
2022/01/01 07:47:43;;;;;;;22.90;21.53;;;10.40;85.30;;;;;;5032738;28;21023;-73
2022/01/01 07:50:11;;;;;;;24.67;23.00;;;10.50;85.30;;;;;;5032610;28;20564;-73
2022/01/01 07:52:38;;;;;;;24.73;23.13;;;10.50;84.90;;;;;;5032886;28;20448;-73
2022/01/01 07:55:06;;;;;;;23.90;22.40;;;10.50;84.50;;;;;;5032965;28;20482;-73
2022/01/01 07:57:33;;;;;;;24.17;22.27;;;10.50;84.60;;;;;;5032706;28;20771;-73
2022/01/01 07:59:59;;;;;;;24.60;22.90;;;10.50;84.80;;;;;;5032595;28;20480;-73
2022/01/01 08:02:26;;;;;;;23.57;22.17;;;10.60;84.80;;;;;;5032730;28;20452;-73
2022/01/01 08:04:54;;;;;;;23.03;21.63;;;10.60;85.10;;;;;;5032714;28;20458;-73
2022/01/01 08:07:23;;;;;;;24.00;22.23;;;10.70;84.50;;;;;;5032629;28;20479;-73
2022/01/01 08:09:50;;;;;;;23.30;22.03;;;10.70;83.30;;;;;;5032493;28;20570;-73
2022/01/01 08:12:17;;;;;;;23.60;22.20;;;10.60;83.40;;;;;;5032823;28;20458;-73
2022/01/01 08:14:44;;;;;;;24.10;22.53;;;10.70;83.40;;;;;;5032522;28;20525;-73
2022/01/01 08:17:10;;;;;;;23.03;21.67;;;10.60;84.10;;;;;;5032534;28;20456;-73
2022/01/01 08:19:38;;;;;;;23.40;22.00;;;10.60;84.50;;;;;;5032205;28;20988;-73
2022/01/01 08:22:16;;;;;;;21.70;20.50;;;10.60;84.00;;;;;;5032714;28;20881;-73
2022/01/01 08:24:43;;;;;;;25.00;23.40;;;10.50;83.90;;;;;;5032737;28;20456;-73
2022/01/01 08:27:10;;;;;;;23.00;21.70;;;10.50;83.80;;;;;;5032279;28;20456;-73
2022/01/01 08:29:38;;;;;;;23.03;21.70;;;10.60;83.70;;;;;;5032191;28;20478;-73
2022/01/01 08:32:05;;;;;;;23.13;21.63;;;10.60;84.00;;;;;;5032579;28;20455;-73
2022/01/01 08:34:33;;;;;;;23.83;22.33;;;10.60;83.50;;;;;;5032599;28;20478;-73
2022/01/01 08:36:59;;;;;;;22.77;21.37;;;10.60;82.90;;;;;;5032515;28;20448;-73
2022/01/01 08:39:28;;;;;;;22.67;21.40;;;10.60;82.20;;;;;;5032314;28;20560;-73
2022/01/01 08:41:55;;;;;;;23.93;22.53;;;10.70;81.80;;;;;;5033278;28;20539;-73
2022/01/01 08:44:22;;;;;;;26.03;24.33;;;10.70;81.30;;;;;;5036073;28;20471;-73
2022/01/01 08:46:49;;;;;;;25.20;23.70;;;10.80;80.60;;;;;;5036297;28;20542;-73
2022/01/01 08:49:16;;;;;;;24.40;22.73;;;10.90;80.30;;;;;;5035966;28;20489;-73
2022/01/01 08:51:44;;;;;;;24.97;23.47;;;10.90;79.90;;;;;;5036300;28;20451;-73
2022/01/01 08:54:13;;;;;;;23.47;22.17;;;11.00;79.20;;;;;;5036063;28;20470;-73
2022/01/01 08:56:42;;;;;;;24.40;22.80;;;11.00;78.90;;;;;;5036205;28;20543;-73
2022/01/01 08:59:09;;;;;;;23.27;21.83;;;11.00;78.50;;;;;;5035829;28;20546;-73
2022/01/01 09:01:36;;;;;;;22.80;21.40;;;11.00;78.20;;;;;;5036027;28;20536;-73
2022/01/01 09:04:03;;;;;;;23.87;22.47;;;11.10;77.90;;;;;;5035856;28;20453;-73
2022/01/01 09:06:30;;;;;;;23.97;22.57;;;11.10;77.80;;;;;;5035982;28;20502;-73
2022/01/01 09:08:57;;;;;;;23.73;22.37;;;11.10;77.90;;;;;;5035617;28;20579;-73
2022/01/01 09:11:24;;;;;;;24.63;23.23;;;11.10;78.00;;;;;;5035780;28;20456;-73
2022/01/01 09:13:52;;;;;;;24.17;22.40;;;11.20;77.60;;;;;;5035747;28;20454;-73
2022/01/01 09:16:23;;;;;;;23.43;22.10;;;11.20;77.40;;;;;;5035656;28;20455;-73
2022/01/01 09:18:49;;;;;;;24.10;22.80;;;11.30;77.40;;;;;;5035761;28;20836;-73
2022/01/01 09:21:17;;;;;;;22.90;21.70;;;11.30;77.50;;;;;;5035507;28;20534;-73
2022/01/01 09:23:44;;;;;;;29.23;26.23;;;11.40;77.30;;;;;;5035517;28;20460;-73
2022/01/01 09:26:11;;;;;;;24.30;22.87;;;11.40;77.20;;;;;;5035475;28;20860;-73
2022/01/01 09:28:38;;;;;;;24.13;22.53;;;11.40;77.30;;;;;;5035276;28;21022;-73
2022/01/01 09:31:06;;;;;;;26.10;24.50;;;11.50;77.40;;;;;;5035401;28;20951;-73
2022/01/01 09:33:33;;;;;;;24.30;22.80;;;11.60;77.10;;;;;;5035506;28;20861;-73
2022/01/01 09:36:02;;;;;;;23.70;22.13;;;11.70;76.70;;;;;;5035397;28;20448;-73
2022/01/01 09:38:30;;;;;;;23.03;21.73;;;11.70;76.60;;;;;;5035208;28;20997;-73
2022/01/01 09:40:58;;;;;;;23.20;21.80;;;11.80;76.60;;;;;;5035277;28;20558;-73
2022/01/01 09:43:27;;;;;;;24.77;23.07;;;11.90;76.40;;;;;;5035158;28;20549;-73
2022/01/01 09:45:56;;;;;;;25.30;23.80;;;12.00;76.20;;;;;;5035253;28;20470;-73
2022/01/01 09:48:25;;;;;;;24.03;22.73;;;12.00;76.40;;;;;;5034508;28;21012;-73
2022/01/01 09:50:54;;;;;;;24.07;22.67;;;12.10;76.50;;;;;;5035035;28;20460;-73
2022/01/01 09:53:25;;;;;;;24.20;22.90;;;12.30;76.10;;;;;;5042359;22;20484;-73
2022/01/01 09:55:52;;;;;;;22.90;21.70;;;12.30;75.80;;;;;;5035021;28;20883;-73
2022/01/01 09:58:23;;;;;;;22.80;21.50;;;12.40;75.40;;;;;;5034863;28;20456;-73
2022/01/01 10:00:52;;;;;;;23.37;22.07;;;12.40;75.40;;;;;;5014852;28;20465;-73
2022/01/01 10:03:27;;;;;;;23.47;22.17;;;12.40;75.50;;;;;;5015139;28;20445;-73
2022/01/01 10:05:59;;;;;;;23.30;22.00;;;12.50;76.20;;;;;;5015082;28;20448;-73
2022/01/01 10:08:26;;;;;;;22.80;21.60;;;12.60;75.60;;;;;;5014744;28;21009;-73
2022/01/01 10:10:53;;;;;;;23.77;22.27;;;12.80;75.00;;;;;;5014788;28;20894;-73
2022/01/01 10:13:27;;;;;;;23.03;21.83;;;12.90;74.90;;;;;;5014851;28;20459;-73
2022/01/01 10:15:55;;;;;;;25.00;23.10;;;12.90;75.10;;;;;;5015028;28;20449;-73
2022/01/01 10:18:28;;;;;;;24.53;23.03;;;13.00;75.30;;;;;;5014727;28;20523;-73
2022/01/01 10:20:59;;;;;;;24.17;22.87;;;13.00;75.10;;;;;;5014768;28;20454;-73
2022/01/01 10:23:29;;;;;;;24.33;22.93;;;13.10;75.20;;;;;;5014810;28;20818;-73
2022/01/01 10:29:09;;;;;;;24.20;22.90;;;13.20;75.40;;;;;;5014513;28;20476;-73
2022/01/01 10:31:38;;;;;;;25.43;23.83;;;13.20;75.60;;;;;;5014706;28;20838;-73
2022/01/01 10:34:15;;;;;;;22.47;21.27;;;13.30;75.70;;;;;;5014504;28;20540;-73
2022/01/01 10:36:45;;;;;;;23.30;22.00;;;13.40;75.80;;;;;;5014456;28;20791;-73
2022/01/01 10:39:15;;;;;;;23.60;22.40;;;13.50;75.50;;;;;;5014329;28;20508;-73
2022/01/01 10:41:47;;;;;;;22.20;20.90;;;13.50;75.20;;;;;;5014480;28;20451;-73
2022/01/01 10:44:14;;;;;;;22.70;21.47;;;13.60;74.90;;;;;;5013918;28;20485;-74
2022/01/01 10:46:41;;;;;;;22.97;21.77;;;13.80;74.80;;;;;;5014139;28;20449;-73
2022/01/01 10:49:37;;;;;;;23.77;22.57;;;13.90;74.80;;;;;;5013805;28;20485;-73
2022/01/01 10:52:35;;;;;;;23.70;22.50;;;14.00;74.60;;;;;;5014011;28;20870;-73
2022/01/01 10:55:03;;;;;;;23.53;22.20;;;14.10;74.10;;;;;;4972965;28;20490;-73
2022/01/01 10:57:34;;;;;;;22.00;20.90;;;14.20;73.80;;;;;;5005042;28;20461;-73
2022/01/01 11:00:09;;;;;;;23.00;21.70;;;14.30;73.50;;;;;;5013772;28;20476;-73
2022/01/01 11:02:37;;;;;;;24.47;23.10;;;14.40;73.40;;;;;;5014032;28;20536;-73
2022/01/01 11:05:06;;;;;;;24.60;23.40;;;14.50;73.70;;;;;;5013600;28;20453;-73
2022/01/01 11:07:34;;;;;;;25.30;23.80;;;14.60;73.20;;;;;;5013711;28;20539;-73
2022/01/01 11:10:01;;;;;;;26.20;24.70;;;14.70;72.10;;;;;;5013543;28;20516;-73
2022/01/01 11:12:30;;;;;;;28.20;26.40;;;14.70;71.20;;;;;;5013852;28;20515;-73
2022/01/01 11:15:01;;;;;;;27.00;25.20;;;14.70;71.10;;;;;;5013722;28;20457;-73
2022/01/01 11:17:28;;;;;;;28.43;26.50;;;14.70;71.40;;;;;;5013731;28;20535;-73
2022/01/01 11:19:56;;;;;;;26.30;24.90;;;14.80;70.90;;;;;;5013445;28;21034;-73
2022/01/01 11:22:26;;;;;;;26.77;25.07;;;14.80;70.30;;;;;;5013814;28;20460;-73
2022/01/01 11:24:55;;;;;;;28.10;26.30;;;14.90;70.20;;;;;;5013648;28;20459;-74
2022/01/01 11:27:24;;;;;;;29.20;27.40;;;15.00;69.90;;;;;;5013588;28;20479;-73
2022/01/01 11:29:53;;;;;;;28.17;26.27;;;15.00;69.30;;;;;;5013092;28;20870;-73
2022/01/01 11:32:23;;;;;;;28.50;26.80;;;15.00;69.30;;;;;;5013427;28;20453;-73
2022/01/01 11:34:52;;;;;;;27.40;25.80;;;14.90;69.60;;;;;;5013332;28;20841;-74
2022/01/01 11:37:22;;;;;;;28.80;26.80;;;14.90;69.30;;;;;;5013222;28;20595;-73
2022/01/01 11:39:55;;;;;;;28.77;26.60;;;14.90;69.60;;;;;;5013131;28;20475;-73
2022/01/01 11:42:23;;;;;;;29.00;27.10;;;14.90;69.70;;;;;;5013363;28;20468;-73
2022/01/01 11:44:53;;;;;;;27.97;26.17;;;15.10;69.30;;;;;;5013079;28;20886;-74
2022/01/01 11:47:22;;;;;;;27.70;25.60;;;15.10;70.00;;;;;;5013128;28;20536;-73
2022/01/01 11:49:50;;;;;;;28.10;25.90;;;15.30;69.70;;;;;;5012685;28;20542;-74
2022/01/01 11:52:37;;;;;;;26.60;25.00;;;15.40;69.70;;;;;;5012978;28;20460;-74
2022/01/01 11:55:11;;;;;;;26.73;25.03;;;15.50;69.80;;;;;;5013174;28;20457;-73
2022/01/01 11:57:38;;;;;;;26.63;25.03;;;15.50;70.00;;;;;;5013052;28;20476;-74
2022/01/01 12:00:15;;;;;;;27.97;26.27;;;15.50;70.20;;;;;;5012824;28;20495;-74
2022/01/01 12:02:46;;;;;;;29.67;27.67;;;15.70;70.80;;;;;;5013285;28;20547;-73
2022/01/01 12:05:30;;;;;;;30.10;28.20;;;15.70;70.90;;;;;;5012889;28;20448;-74
2022/01/01 12:07:59;;;;;;;27.80;26.10;;;15.80;69.80;;;;;;5012411;28;20452;-73
2022/01/01 12:10:30;;;;;;;26.50;24.90;;;15.90;69.00;;;;;;5012620;28;20850;-74
2022/01/01 12:12:59;;;;;;;27.60;25.90;;;15.90;69.20;;;;;;5013166;28;20818;-74
2022/01/01 12:15:33;;;;;;;27.73;25.93;;;15.90;69.40;;;;;;5012924;28;20453;-73
2022/01/01 12:18:03;;;;;;;27.20;25.40;;;15.80;69.90;;;;;;5012193;28;20934;-73
2022/01/01 12:20:33;;;;;;;27.07;25.33;;;15.80;70.00;;;;;;5012622;28;20552;-74
2022/01/01 12:23:02;;;;;;;26.83;25.10;;;15.80;70.80;;;;;;5012831;28;20456;-73
2022/01/01 12:25:32;;;;;;;27.77;25.77;;;15.80;70.40;;;;;;5012712;28;20540;-74
2022/01/01 12:28:03;;;;;;;28.10;26.10;;;16.00;69.90;;;;;;5012697;28;20453;-74
2022/01/01 12:30:40;;;;;;;28.37;26.20;;;16.00;69.70;;;;;;5012449;28;20495;-74
2022/01/01 12:33:09;;;;;;;28.40;26.40;;;16.00;69.80;;;;;;5012908;28;20810;-74
2022/01/01 12:35:48;;;;;;;27.67;25.83;;;16.00;69.70;;;;;;5012669;28;20449;-74
2022/01/01 12:38:19;;;;;;;26.47;24.77;;;16.00;70.00;;;;;;5012750;28;20451;-73